createdAt,value
2017-06-21T00:00:57.120Z,0
2017-06-21T00:01:57.403Z,0
2017-06-21T00:02:57.379Z,0
2017-06-21T00:03:57.362Z,0
2017-06-21T00:04:57.339Z,0
2017-06-21T00:05:57.618Z,0
2017-06-21T00:06:57.307Z,0
2017-06-21T00:07:57.283Z,0
2017-06-21T00:08:57.254Z,0
2017-06-21T00:09:57.239Z,0
2017-06-21T00:10:56.962Z,0
2017-06-21T00:11:57.202Z,0
2017-06-21T00:12:57.173Z,0
2017-06-21T00:13:57.157Z,0
2017-06-21T00:14:57.143Z,0
2017-06-21T00:15:57.109Z,0
2017-06-21T00:16:57.108Z,0
2017-06-21T00:17:57.072Z,0
2017-06-21T00:18:57.052Z,0
2017-06-21T00:19:57.329Z,0
2017-06-21T00:20:57.065Z,0
2017-06-21T00:21:57.002Z,0
2017-06-21T00:22:56.979Z,0
2017-06-21T00:23:56.648Z,0
2017-06-21T00:24:56.937Z,0
2017-06-21T00:25:56.910Z,0
2017-06-21T00:26:56.903Z,0
2017-06-21T00:27:56.567Z,0
2017-06-21T00:28:56.892Z,0
2017-06-21T00:29:56.844Z,0
2017-06-21T00:30:56.808Z,0
2017-06-21T00:31:56.787Z,0
2017-06-21T00:32:56.769Z,0
2017-06-21T00:33:56.744Z,0
2017-06-21T00:34:56.424Z,0
2017-06-21T00:35:56.708Z,0
2017-06-21T00:36:56.985Z,0
2017-06-21T00:37:56.665Z,0
2017-06-21T00:38:56.690Z,0
2017-06-21T00:39:56.319Z,0
2017-06-21T00:40:56.603Z,0
2017-06-21T00:41:56.644Z,0
2017-06-21T00:42:56.563Z,0
2017-06-21T00:43:56.595Z,0
2017-06-21T00:44:56.516Z,0
2017-06-21T00:45:56.507Z,0
2017-06-21T00:46:56.480Z,0
2017-06-21T00:47:56.462Z,0
2017-06-21T00:48:56.448Z,0
2017-06-21T00:49:56.412Z,0
2017-06-21T00:50:56.400Z,0
2017-06-21T00:51:56.084Z,0
2017-06-21T00:52:56.360Z,0
2017-06-21T00:53:56.335Z,0
2017-06-21T00:54:56.320Z,0
2017-06-21T00:55:56.303Z,0
2017-06-21T00:56:55.980Z,0
2017-06-21T00:57:56.297Z,0
2017-06-21T00:58:56.285Z,0
2017-06-21T00:59:55.918Z,0
2017-06-21T01:00:55.913Z,0
2017-06-21T01:01:56.242Z,0
2017-06-21T01:02:56.161Z,0
2017-06-21T01:03:56.142Z,0
2017-06-21T01:04:55.812Z,0
2017-06-21T01:05:56.150Z,0
2017-06-21T01:06:56.071Z,0
2017-06-21T01:07:56.057Z,0
2017-06-21T01:08:56.039Z,0
2017-06-21T01:09:56.012Z,0
2017-06-21T01:10:55.991Z,0
2017-06-21T01:11:55.965Z,0
2017-06-21T01:12:55.976Z,0
2017-06-21T01:13:55.927Z,0
2017-06-21T01:14:55.918Z,0
2017-06-21T01:15:55.592Z,0
2017-06-21T01:16:55.869Z,0
2017-06-21T01:17:55.846Z,0
2017-06-21T01:18:55.830Z,0
2017-06-21T01:19:55.803Z,0
2017-06-21T01:20:55.786Z,0
2017-06-21T01:21:55.816Z,0
2017-06-21T01:22:55.758Z,0
2017-06-21T01:23:55.726Z,0
2017-06-21T01:24:55.715Z,0
2017-06-21T01:25:55.676Z,0
2017-06-21T01:26:55.714Z,0
2017-06-21T01:27:55.637Z,0
2017-06-21T01:28:55.616Z,0
2017-06-21T01:29:55.602Z,0
2017-06-21T01:30:55.577Z,0
2017-06-21T01:31:55.566Z,0
2017-06-21T01:32:55.546Z,0
2017-06-21T01:33:55.519Z,0
2017-06-21T01:34:55.247Z,0
2017-06-21T01:35:55.476Z,0
2017-06-21T01:36:55.457Z,0
2017-06-21T01:37:55.434Z,0
2017-06-21T01:38:55.414Z,0
2017-06-21T01:39:55.397Z,0
2017-06-21T01:40:55.382Z,0
2017-06-21T01:41:55.403Z,0
2017-06-21T01:42:55.326Z,0
2017-06-21T01:43:55.309Z,0
2017-06-21T01:44:55.285Z,0
2017-06-21T01:45:55.328Z,0
2017-06-21T01:46:55.302Z,0
2017-06-21T01:47:55.237Z,0
2017-06-21T01:48:55.206Z,0
2017-06-21T01:49:55.187Z,0
2017-06-21T01:50:55.160Z,0
2017-06-21T01:51:55.159Z,0
2017-06-21T01:52:55.116Z,0
2017-06-21T01:53:55.110Z,0
2017-06-21T01:54:55.082Z,0
2017-06-21T01:55:54.758Z,0
2017-06-21T01:56:54.734Z,0
2017-06-21T01:57:55.017Z,0
2017-06-21T01:58:54.686Z,0
2017-06-21T01:59:54.685Z,0
2017-06-21T02:00:54.660Z,0
2017-06-21T02:01:54.681Z,0
2017-06-21T02:02:54.651Z,0
2017-06-21T02:03:54.892Z,0
2017-06-21T02:04:54.569Z,0
2017-06-21T02:05:54.854Z,0
2017-06-21T02:06:54.834Z,0
2017-06-21T02:07:54.505Z,0
2017-06-21T02:08:54.788Z,0
2017-06-21T02:09:54.775Z,0
2017-06-21T02:10:54.748Z,0
2017-06-21T02:11:54.740Z,0
2017-06-21T02:12:54.748Z,0
2017-06-21T02:13:54.690Z,0
2017-06-21T02:14:54.713Z,0
2017-06-21T02:15:54.650Z,0
2017-06-21T02:16:54.620Z,0
2017-06-21T02:17:54.301Z,0
2017-06-21T02:18:54.328Z,0
2017-06-21T02:19:54.548Z,0
2017-06-21T02:20:54.593Z,0
2017-06-21T02:21:54.518Z,0
2017-06-21T02:22:54.499Z,0
2017-06-21T02:23:53.302Z,0
2017-06-21T02:24:54.448Z,0
2017-06-21T02:25:54.437Z,0
2017-06-21T02:26:54.416Z,0
2017-06-21T02:27:54.387Z,0
2017-06-21T02:28:54.122Z,0
2017-06-21T02:29:54.359Z,0
2017-06-21T02:30:54.379Z,0
2017-06-21T02:31:54.306Z,0
2017-06-21T02:32:53.987Z,0
2017-06-21T02:33:54.263Z,0
2017-06-21T02:34:53.999Z,0
2017-06-21T02:35:54.224Z,0
2017-06-21T02:36:54.212Z,0
2017-06-21T02:37:54.201Z,0
2017-06-21T02:38:54.170Z,0
2017-06-21T02:39:54.184Z,0
2017-06-21T02:40:54.122Z,0
2017-06-21T02:41:54.098Z,0
2017-06-21T02:42:54.126Z,0
2017-06-21T02:43:54.060Z,0
2017-06-21T02:44:53.740Z,0
2017-06-21T02:45:54.013Z,0
2017-06-21T02:46:54.052Z,0
2017-06-21T02:47:53.971Z,0
2017-06-21T02:48:53.965Z,0
2017-06-21T02:49:53.927Z,0
2017-06-21T02:50:53.919Z,0
2017-06-21T02:51:53.902Z,0
2017-06-21T02:52:53.879Z,0
2017-06-21T02:53:53.845Z,0
2017-06-21T02:54:53.890Z,0
2017-06-21T02:55:53.807Z,0
2017-06-21T02:56:53.783Z,0
2017-06-21T02:57:53.762Z,0
2017-06-21T02:58:53.740Z,0
2017-06-21T02:59:53.716Z,5
2017-06-21T03:00:53.703Z,5
2017-06-21T03:01:53.690Z,5
2017-06-21T03:02:53.657Z,5
2017-06-21T03:03:53.421Z,5
2017-06-21T03:04:53.618Z,5
2017-06-21T03:05:53.601Z,5
2017-06-21T03:06:53.574Z,5
2017-06-21T03:07:53.548Z,5
2017-06-21T03:08:53.535Z,5
2017-06-21T03:09:53.212Z,10
2017-06-21T03:10:53.486Z,10
2017-06-21T03:11:53.471Z,10
2017-06-21T03:12:53.445Z,10
2017-06-21T03:13:53.424Z,10
2017-06-21T03:14:53.402Z,10
2017-06-21T03:15:53.379Z,15
2017-06-21T03:16:53.363Z,15
2017-06-21T03:17:53.346Z,15
2017-06-21T03:18:53.321Z,15
2017-06-21T03:19:53.350Z,15
2017-06-21T03:20:53.288Z,20
2017-06-21T03:21:53.263Z,20
2017-06-21T03:22:53.289Z,20
2017-06-21T03:23:53.217Z,20
2017-06-21T03:24:53.244Z,25
2017-06-21T03:25:53.177Z,25
2017-06-21T03:26:53.153Z,25
2017-06-21T03:27:53.183Z,25
2017-06-21T03:28:53.106Z,30
2017-06-21T03:29:53.083Z,30
2017-06-21T03:30:53.072Z,30
2017-06-21T03:31:52.751Z,30
2017-06-21T03:32:53.020Z,35
2017-06-21T03:33:53.007Z,35
2017-06-21T03:34:52.983Z,35
2017-06-21T03:35:52.975Z,40
2017-06-21T03:36:52.991Z,40
2017-06-21T03:37:52.975Z,40
2017-06-21T03:38:52.899Z,45
2017-06-21T03:39:52.889Z,45
2017-06-21T03:40:52.910Z,50
2017-06-21T03:41:52.535Z,45
2017-06-21T03:42:52.819Z,50
2017-06-21T03:43:52.797Z,55
2017-06-21T03:44:52.775Z,55
2017-06-21T03:45:52.764Z,55
2017-06-21T03:46:52.735Z,60
2017-06-21T03:47:52.708Z,65
2017-06-21T03:48:52.682Z,70
2017-06-21T03:49:52.674Z,75
2017-06-21T03:50:52.656Z,80
2017-06-21T03:51:52.629Z,80
2017-06-21T03:52:52.614Z,85
2017-06-21T03:53:52.592Z,90
2017-06-21T03:54:52.611Z,95
2017-06-21T03:55:52.583Z,95
2017-06-21T03:56:52.514Z,100
2017-06-21T03:57:52.504Z,105
2017-06-21T03:58:52.477Z,105
2017-06-21T03:59:52.464Z,105
2017-06-21T04:00:52.430Z,110
2017-06-21T04:01:52.429Z,115
2017-06-21T04:02:52.399Z,115
2017-06-21T04:03:52.402Z,125
2017-06-21T04:04:52.348Z,125
2017-06-21T04:05:52.388Z,130
2017-06-21T04:06:52.311Z,135
2017-06-21T04:07:52.292Z,140
2017-06-21T04:08:52.276Z,140
2017-06-21T04:09:52.261Z,145
2017-06-21T04:10:51.942Z,150
2017-06-21T04:11:52.221Z,155
2017-06-21T04:12:51.882Z,160
2017-06-21T04:13:52.162Z,165
2017-06-21T04:14:52.199Z,165
2017-06-21T04:15:52.134Z,170
2017-06-21T04:16:52.109Z,175
2017-06-21T04:17:52.081Z,180
2017-06-21T04:18:52.062Z,180
2017-06-21T04:19:52.053Z,185
2017-06-21T04:20:52.044Z,195
2017-06-21T04:21:52.016Z,195
2017-06-21T04:22:51.695Z,205
2017-06-21T04:23:51.967Z,210
2017-06-21T04:24:51.999Z,215
2017-06-21T04:25:51.924Z,215
2017-06-21T04:26:51.660Z,220
2017-06-21T04:27:51.889Z,225
2017-06-21T04:28:51.926Z,225
2017-06-21T04:29:51.848Z,230
2017-06-21T04:30:51.885Z,235
2017-06-21T04:31:51.502Z,240
2017-06-21T04:32:51.787Z,245
2017-06-21T04:33:51.776Z,250
2017-06-21T04:34:51.749Z,255
2017-06-21T04:35:51.727Z,260
2017-06-21T04:36:51.716Z,265
2017-06-21T04:37:51.749Z,270
2017-06-21T04:38:51.674Z,275
2017-06-21T04:39:51.644Z,280
2017-06-21T04:40:51.633Z,285
2017-06-21T04:41:51.612Z,290
2017-06-21T04:42:51.588Z,300
2017-06-21T04:43:51.271Z,305
2017-06-21T04:44:51.255Z,310
2017-06-21T04:45:51.577Z,315
2017-06-21T04:46:51.514Z,325
2017-06-21T04:47:51.503Z,325
2017-06-21T04:48:51.479Z,330
2017-06-21T04:49:51.158Z,335
2017-06-21T04:50:51.495Z,340
2017-06-21T04:51:51.418Z,345
2017-06-21T04:52:51.405Z,350
2017-06-21T04:53:51.379Z,355
2017-06-21T04:54:51.367Z,360
2017-06-21T04:55:51.346Z,365
2017-06-21T04:56:51.328Z,370
2017-06-21T04:57:51.302Z,375
2017-06-21T04:58:50.997Z,385
2017-06-21T04:59:51.366Z,390
2017-06-21T05:00:51.249Z,395
2017-06-21T05:01:51.238Z,400
2017-06-21T05:02:51.223Z,405
2017-06-21T05:03:51.193Z,410
2017-06-21T05:04:51.174Z,415
2017-06-21T05:05:51.160Z,415
2017-06-21T05:06:51.150Z,420
2017-06-21T05:07:51.124Z,420
2017-06-21T05:08:51.099Z,425
2017-06-21T05:09:51.117Z,430
2017-06-21T05:10:51.071Z,440
2017-06-21T05:11:51.090Z,445
2017-06-21T05:12:51.085Z,460
2017-06-21T05:13:51.017Z,465
2017-06-21T05:14:50.987Z,465
2017-06-21T05:15:50.972Z,475
2017-06-21T05:16:50.965Z,470
2017-06-21T05:17:50.948Z,480
2017-06-21T05:18:50.939Z,490
2017-06-21T05:19:50.903Z,495
2017-06-21T05:20:50.886Z,505
2017-06-21T05:21:50.880Z,510
2017-06-21T05:22:50.857Z,510
2017-06-21T05:23:50.529Z,515
2017-06-21T05:24:50.815Z,505
2017-06-21T05:25:50.843Z,495
2017-06-21T05:26:50.785Z,495
2017-06-21T05:27:50.764Z,505
2017-06-21T05:28:50.801Z,500
2017-06-21T05:29:50.479Z,505
2017-06-21T05:30:50.711Z,505
2017-06-21T05:31:50.700Z,520
2017-06-21T05:32:50.684Z,510
2017-06-21T05:33:50.662Z,500
2017-06-21T05:34:50.344Z,500
2017-06-21T05:35:50.623Z,540
2017-06-21T05:36:50.657Z,550
2017-06-21T05:37:50.682Z,570
2017-06-21T05:38:50.572Z,580
2017-06-21T05:39:50.259Z,595
2017-06-21T05:40:50.548Z,590
2017-06-21T05:41:50.519Z,610
2017-06-21T05:42:50.508Z,555
2017-06-21T05:43:50.476Z,595
2017-06-21T05:44:50.160Z,635
2017-06-21T05:45:50.470Z,640
2017-06-21T05:46:50.433Z,635
2017-06-21T05:47:50.414Z,640
2017-06-21T05:48:50.102Z,640
2017-06-21T05:49:50.379Z,635
2017-06-21T05:50:50.366Z,635
2017-06-21T05:51:50.046Z,630
2017-06-21T05:52:50.334Z,630
2017-06-21T05:53:50.316Z,620
2017-06-21T05:54:50.307Z,620
2017-06-21T05:55:50.282Z,620
2017-06-21T05:56:50.267Z,605
2017-06-21T05:57:50.257Z,595
2017-06-21T05:58:50.241Z,595
2017-06-21T05:59:50.221Z,600
2017-06-21T06:00:50.204Z,610
2017-06-21T06:01:50.179Z,625
2017-06-21T06:02:50.215Z,620
2017-06-21T06:03:50.154Z,620
2017-06-21T06:04:49.833Z,620
2017-06-21T06:05:50.111Z,635
2017-06-21T06:06:50.097Z,635
2017-06-21T06:07:50.077Z,610
2017-06-21T06:08:50.082Z,645
2017-06-21T06:09:50.065Z,655
2017-06-21T06:10:50.038Z,665
2017-06-21T06:11:50.021Z,675
2017-06-21T06:12:50.003Z,685
2017-06-21T06:13:49.992Z,700
2017-06-21T06:14:49.971Z,685
2017-06-21T06:15:50.008Z,710
2017-06-21T06:16:49.952Z,740
2017-06-21T06:17:49.975Z,770
2017-06-21T06:18:49.906Z,815
2017-06-21T06:19:49.899Z,825
2017-06-21T06:20:49.888Z,840
2017-06-21T06:21:49.860Z,875
2017-06-21T06:22:49.545Z,885
2017-06-21T06:23:49.535Z,920
2017-06-21T06:24:49.815Z,945
2017-06-21T06:25:50.099Z,940
2017-06-21T06:26:49.850Z,955
2017-06-21T06:27:49.769Z,925
2017-06-21T06:28:49.455Z,950
2017-06-21T06:29:49.505Z,950
2017-06-21T06:30:49.731Z,930
2017-06-21T06:31:49.416Z,885
2017-06-21T06:32:49.697Z,825
2017-06-21T06:33:49.388Z,820
2017-06-21T06:34:49.683Z,875
2017-06-21T06:35:49.664Z,875
2017-06-21T06:36:49.349Z,890
2017-06-21T06:37:49.619Z,910
2017-06-21T06:38:49.616Z,950
2017-06-21T06:39:49.602Z,990
2017-06-21T06:40:49.593Z,1010
2017-06-21T06:41:49.573Z,1030
2017-06-21T06:42:49.549Z,1045
2017-06-21T06:43:49.539Z,950
2017-06-21T06:44:49.528Z,1010
2017-06-21T06:45:49.568Z,1075
2017-06-21T06:46:49.506Z,1090
2017-06-21T06:47:49.190Z,1085
2017-06-21T06:48:49.462Z,1100
2017-06-21T06:49:49.198Z,1125
2017-06-21T06:50:49.149Z,1120
2017-06-21T06:51:49.426Z,1075
2017-06-21T06:52:49.126Z,1035
2017-06-21T06:53:49.103Z,1060
2017-06-21T06:54:49.092Z,1075
2017-06-21T06:55:49.085Z,1025
2017-06-21T06:56:49.370Z,960
2017-06-21T06:57:49.344Z,825
2017-06-21T06:58:49.041Z,860
2017-06-21T06:59:49.034Z,885
2017-06-21T07:00:49.316Z,1025
2017-06-21T07:01:49.294Z,1140
2017-06-21T07:02:49.305Z,1115
2017-06-21T07:03:49.325Z,1200
2017-06-21T07:04:49.262Z,1215
2017-06-21T07:05:49.249Z,1230
2017-06-21T07:06:48.932Z,1240
2017-06-21T07:07:49.223Z,1255
2017-06-21T07:08:49.208Z,1220
2017-06-21T07:09:48.897Z,1200
2017-06-21T07:10:48.872Z,1255
2017-06-21T07:11:49.166Z,1265
2017-06-21T07:12:49.159Z,1280
2017-06-21T07:13:49.138Z,1275
2017-06-21T07:14:49.146Z,1275
2017-06-21T07:15:49.118Z,1275
2017-06-21T07:16:49.124Z,1245
2017-06-21T07:17:49.096Z,1235
2017-06-21T07:18:48.785Z,1260
2017-06-21T07:19:49.074Z,1240
2017-06-21T07:20:49.111Z,1290
2017-06-21T07:21:48.757Z,1300
2017-06-21T07:22:49.037Z,1325
2017-06-21T07:23:49.035Z,1300
2017-06-21T07:24:49.018Z,1310
2017-06-21T07:25:49.005Z,1310
2017-06-21T07:26:49.005Z,1300
2017-06-21T07:27:48.975Z,1305
2017-06-21T07:28:48.975Z,1315
2017-06-21T07:29:48.955Z,1335
2017-06-21T07:30:48.952Z,1345
2017-06-21T07:31:48.931Z,1365
2017-06-21T07:32:48.940Z,1375
2017-06-21T07:33:48.905Z,1390
2017-06-21T07:34:48.603Z,1390
2017-06-21T07:35:48.903Z,1415
2017-06-21T07:36:48.875Z,1435
2017-06-21T07:37:48.865Z,1455
2017-06-21T07:38:48.863Z,1455
2017-06-21T07:39:49.052Z,1465
2017-06-21T07:40:48.840Z,1470
2017-06-21T07:41:48.524Z,1475
2017-06-21T07:42:48.818Z,1480
2017-06-21T07:43:48.851Z,1500
2017-06-21T07:44:48.844Z,1500
2017-06-21T07:45:48.789Z,1515
2017-06-21T07:46:48.778Z,1510
2017-06-21T07:47:48.791Z,1515
2017-06-21T07:48:48.747Z,1525
2017-06-21T07:49:48.737Z,1545
2017-06-21T07:50:48.735Z,1545
2017-06-21T07:51:48.717Z,1555
2017-06-21T07:52:48.710Z,1555
2017-06-21T07:53:48.905Z,1560
2017-06-21T07:54:48.696Z,1565
2017-06-21T07:55:48.381Z,1575
2017-06-21T07:56:48.377Z,1580
2017-06-21T07:57:48.666Z,1600
2017-06-21T07:58:48.650Z,1575
2017-06-21T07:59:48.643Z,1590
2017-06-21T08:00:48.483Z,1565
2017-06-21T08:01:48.369Z,1585
2017-06-21T08:02:48.610Z,1605
2017-06-21T08:03:48.610Z,1615
2017-06-21T08:04:48.612Z,1620
2017-06-21T08:05:48.638Z,1625
2017-06-21T08:06:48.679Z,1630
2017-06-21T08:07:48.577Z,1630
2017-06-21T08:08:48.557Z,1640
2017-06-21T08:09:48.554Z,1650
2017-06-21T08:10:48.554Z,1655
2017-06-21T08:11:48.547Z,1665
2017-06-21T08:12:48.586Z,1665
2017-06-21T08:13:48.519Z,1675
2017-06-21T08:14:48.520Z,1665
2017-06-21T08:15:48.514Z,1670
2017-06-21T08:16:48.547Z,1685
2017-06-21T08:17:48.850Z,1665
2017-06-21T08:18:48.479Z,1680
2017-06-21T08:19:48.521Z,1675
2017-06-21T08:20:48.516Z,1665
2017-06-21T08:21:48.161Z,1640
2017-06-21T08:22:48.455Z,1600
2017-06-21T08:23:48.160Z,1645
2017-06-21T08:24:48.439Z,1640
2017-06-21T08:25:48.433Z,1660
2017-06-21T08:26:48.425Z,1405
2017-06-21T08:27:48.423Z,1725
2017-06-21T08:28:48.412Z,1715
2017-06-21T08:29:48.106Z,1740
2017-06-21T08:30:48.388Z,1780
2017-06-21T08:31:48.439Z,1760
2017-06-21T08:32:48.382Z,1775
2017-06-21T08:33:48.386Z,1800
2017-06-21T08:34:48.069Z,1795
2017-06-21T08:35:48.568Z,1795
2017-06-21T08:36:48.347Z,1830
2017-06-21T08:37:48.548Z,1935
2017-06-21T08:38:48.386Z,1970
2017-06-21T08:39:48.341Z,1990
2017-06-21T08:40:48.318Z,2075
2017-06-21T08:41:48.311Z,2080
2017-06-21T08:42:48.307Z,2110
2017-06-21T08:43:48.306Z,2125
2017-06-21T08:44:48.291Z,2090
2017-06-21T08:45:48.282Z,2070
2017-06-21T08:46:48.288Z,1955
2017-06-21T08:47:48.277Z,1860
2017-06-21T08:48:48.276Z,1840
2017-06-21T08:49:48.259Z,1715
2017-06-21T08:50:48.249Z,1650
2017-06-21T08:51:48.298Z,1695
2017-06-21T08:52:48.295Z,1705
2017-06-21T08:53:48.236Z,1715
2017-06-21T08:54:48.235Z,1775
2017-06-21T08:55:48.225Z,1785
2017-06-21T08:56:48.303Z,1770
2017-06-21T08:57:48.210Z,1765
2017-06-21T08:58:48.188Z,1765
2017-06-21T08:59:47.699Z,1790
2017-06-21T09:00:48.188Z,1780
2017-06-21T09:01:48.178Z,1800
2017-06-21T09:02:48.182Z,1850
2017-06-21T09:03:48.160Z,1850
2017-06-21T09:04:48.163Z,1905
2017-06-21T09:05:48.158Z,1910
2017-06-21T09:06:47.848Z,1925
2017-06-21T09:07:48.138Z,1925
2017-06-21T09:08:48.123Z,1880
2017-06-21T09:09:48.172Z,1890
2017-06-21T09:10:48.112Z,1885
2017-06-21T09:11:48.121Z,1865
2017-06-21T09:12:48.163Z,1845
2017-06-21T09:13:48.092Z,1865
2017-06-21T09:14:48.082Z,1895
2017-06-21T09:15:48.082Z,1915
2017-06-21T09:16:47.778Z,1960
2017-06-21T09:17:48.085Z,1945
2017-06-21T09:18:47.901Z,1900
2017-06-21T09:19:48.065Z,1885
2017-06-21T09:20:48.100Z,1780
2017-06-21T09:21:48.404Z,1920
2017-06-21T09:22:48.039Z,1795
2017-06-21T09:23:48.031Z,1655
2017-06-21T09:24:48.065Z,1730
2017-06-21T09:25:48.069Z,1880
2017-06-21T09:26:48.021Z,1750
2017-06-21T09:27:47.713Z,1625
2017-06-21T09:28:48.027Z,1635
2017-06-21T09:29:47.994Z,1830
2017-06-21T09:30:47.989Z,1660
2017-06-21T09:31:48.052Z,1810
2017-06-21T09:32:47.929Z,1870
2017-06-21T09:33:47.974Z,1930
2017-06-21T09:34:47.961Z,2070
2017-06-21T09:35:47.955Z,1935
2017-06-21T09:36:47.995Z,1990
2017-06-21T09:37:47.940Z,2005
2017-06-21T09:38:47.940Z,2060
2017-06-21T09:39:47.932Z,2065
2017-06-21T09:40:47.925Z,2020
2017-06-21T09:41:47.614Z,2015
2017-06-21T09:42:47.955Z,2035
2017-06-21T09:43:47.953Z,1995
2017-06-21T09:44:47.896Z,1950
2017-06-21T09:45:47.977Z,1980
2017-06-21T09:46:47.879Z,1880
2017-06-21T09:47:47.980Z,1970
2017-06-21T09:48:47.572Z,1980
2017-06-21T09:49:47.858Z,1890
2017-06-21T09:50:47.571Z,2015
2017-06-21T09:51:47.885Z,2000
2017-06-21T09:52:47.855Z,2080
2017-06-21T09:53:48.145Z,2040
2017-06-21T09:54:47.824Z,1925
2017-06-21T09:55:47.909Z,2000
2017-06-21T09:56:47.863Z,1910
2017-06-21T09:57:48.022Z,1775
2017-06-21T09:58:47.811Z,1925
2017-06-21T09:59:47.805Z,1780
2017-06-21T10:00:47.788Z,1505
2017-06-21T10:01:47.591Z,1540
2017-06-21T10:02:47.570Z,1290
2017-06-21T10:03:47.765Z,1795
2017-06-21T10:04:47.763Z,1950
2017-06-21T10:05:47.747Z,1415
2017-06-21T10:06:47.439Z,1845
2017-06-21T10:07:47.736Z,2000
2017-06-21T10:08:47.438Z,1925
2017-06-21T10:09:47.449Z,1965
2017-06-21T10:10:47.711Z,1960
2017-06-21T10:11:47.711Z,1860
2017-06-21T10:12:47.704Z,1895
2017-06-21T10:13:47.701Z,1945
2017-06-21T10:14:47.686Z,1955
2017-06-21T10:15:47.784Z,1955
2017-06-21T10:16:47.664Z,2100
2017-06-21T10:17:47.654Z,2025
2017-06-21T10:18:47.667Z,2160
2017-06-21T10:19:47.649Z,2155
2017-06-21T10:20:47.658Z,1965
2017-06-21T10:21:47.638Z,2190
2017-06-21T10:22:47.933Z,2165
2017-06-21T10:23:47.315Z,1875
2017-06-21T10:24:47.672Z,2145
2017-06-21T10:25:47.600Z,2075
2017-06-21T10:26:47.387Z,2135
2017-06-21T10:27:47.583Z,2175
2017-06-21T10:28:47.584Z,2000
2017-06-21T10:29:47.601Z,2085
2017-06-21T10:30:46.965Z,1820
2017-06-21T10:31:47.566Z,1970
2017-06-21T10:32:47.562Z,1930
2017-06-21T10:33:47.304Z,1910
2017-06-21T10:34:47.593Z,1890
2017-06-21T10:35:47.538Z,1915
2017-06-21T10:36:47.533Z,1845
2017-06-21T10:37:47.547Z,1740
2017-06-21T10:38:47.203Z,1620
2017-06-21T10:39:47.253Z,1550
2017-06-21T10:40:47.200Z,1550
2017-06-21T10:41:47.506Z,1500
2017-06-21T10:42:46.880Z,1455
2017-06-21T10:43:47.472Z,1245
2017-06-21T10:44:47.511Z,1305
2017-06-21T10:45:47.484Z,1320
2017-06-21T10:46:47.450Z,970
2017-06-21T10:47:47.442Z,1485
2017-06-21T10:48:47.683Z,1640
2017-06-21T10:49:47.179Z,1720
2017-06-21T10:50:47.120Z,1605
2017-06-21T10:51:47.702Z,1400
2017-06-21T10:52:47.622Z,1585
2017-06-21T10:53:47.391Z,1370
2017-06-21T10:54:47.437Z,1150
2017-06-21T10:55:47.417Z,1190
2017-06-21T10:56:47.370Z,1785
2017-06-21T10:57:47.603Z,1625
2017-06-21T10:58:47.040Z,1580
2017-06-21T10:59:47.337Z,1595
2017-06-21T11:00:47.331Z,1300
2017-06-21T11:01:47.364Z,1120
2017-06-21T11:02:47.299Z,1290
2017-06-21T11:03:47.335Z,1445
2017-06-21T11:04:46.983Z,875
2017-06-21T11:05:47.269Z,700
2017-06-21T11:06:47.265Z,625
2017-06-21T11:07:47.249Z,590
2017-06-21T11:08:47.300Z,585
2017-06-21T11:09:46.924Z,1235
2017-06-21T11:10:46.928Z,2030
2017-06-21T11:11:47.213Z,2205
2017-06-21T11:12:47.194Z,2240
2017-06-21T11:13:47.209Z,1830
2017-06-21T11:14:47.183Z,1105
2017-06-21T11:15:47.173Z,805
2017-06-21T11:16:47.157Z,915
2017-06-21T11:17:47.153Z,1025
2017-06-21T11:18:47.140Z,920
2017-06-21T11:19:47.129Z,520
2017-06-21T11:20:47.141Z,365
2017-06-21T11:21:47.106Z,360
2017-06-21T11:22:47.101Z,350
2017-06-21T11:23:46.780Z,345
2017-06-21T11:24:47.070Z,345
2017-06-21T11:25:47.119Z,345
2017-06-21T11:26:47.101Z,340
2017-06-21T11:27:47.031Z,345
2017-06-21T11:28:47.016Z,350
2017-06-21T11:29:47.006Z,345
2017-06-21T11:30:46.997Z,355
2017-06-21T11:31:46.988Z,360
2017-06-21T11:32:46.965Z,370
2017-06-21T11:33:46.978Z,380
2017-06-21T11:34:46.938Z,385
2017-06-21T11:35:46.942Z,390
2017-06-21T11:36:46.921Z,395
2017-06-21T11:37:46.902Z,405
2017-06-21T11:38:46.939Z,400
2017-06-21T11:39:46.596Z,385
2017-06-21T11:40:46.863Z,400
2017-06-21T11:42:01.457Z,405
2017-06-21T11:42:46.531Z,410
2017-06-21T11:43:46.813Z,410
2017-06-21T11:44:46.806Z,430
2017-06-21T11:45:46.785Z,445
2017-06-21T11:46:46.777Z,455
2017-06-21T11:47:46.810Z,465
2017-06-21T11:48:46.805Z,445
2017-06-21T11:49:46.435Z,430
2017-06-21T11:50:46.769Z,420
2017-06-21T11:51:46.705Z,405
2017-06-21T11:52:46.411Z,380
2017-06-21T11:53:46.676Z,360
2017-06-21T11:54:46.680Z,350
2017-06-21T11:55:46.643Z,315
2017-06-21T11:56:46.620Z,325
2017-06-21T11:57:46.622Z,315
2017-06-21T11:58:46.352Z,310
2017-06-21T11:59:46.581Z,300
2017-06-21T12:00:46.283Z,295
2017-06-21T12:01:46.772Z,290
2017-06-21T12:02:46.551Z,290
2017-06-21T12:03:46.281Z,290
2017-06-21T12:04:46.521Z,285
2017-06-21T12:05:46.504Z,280
2017-06-21T12:06:45.891Z,280
2017-06-21T12:07:46.487Z,280
2017-06-21T12:08:46.475Z,275
2017-06-21T12:09:46.145Z,270
2017-06-21T12:10:46.476Z,265
2017-06-21T12:11:46.111Z,260
2017-06-21T12:12:45.904Z,255
2017-06-21T12:13:46.098Z,255
2017-06-21T12:14:46.368Z,255
2017-06-21T12:15:46.502Z,250
2017-06-21T12:16:46.333Z,245
2017-06-21T12:17:46.314Z,240
2017-06-21T12:18:46.017Z,240
2017-06-21T12:19:46.034Z,245
2017-06-21T12:20:46.280Z,245
2017-06-21T12:21:45.967Z,250
2017-06-21T12:22:46.005Z,250
2017-06-21T12:23:46.219Z,245
2017-06-21T12:24:46.202Z,240
2017-06-21T12:25:46.202Z,235
2017-06-21T12:26:45.888Z,235
2017-06-21T12:27:45.577Z,235
2017-06-21T12:28:46.223Z,240
2017-06-21T12:29:46.190Z,240
2017-06-21T12:30:46.149Z,240
2017-06-21T12:31:46.205Z,240
2017-06-21T12:32:46.111Z,245
2017-06-21T12:33:46.290Z,240
2017-06-21T12:34:45.773Z,245
2017-06-21T12:35:46.051Z,240
2017-06-21T12:36:46.369Z,235
2017-06-21T12:37:46.016Z,235
2017-06-21T12:38:46.002Z,235
2017-06-21T12:39:45.981Z,230
2017-06-21T12:40:45.665Z,230
2017-06-21T12:41:45.950Z,225
2017-06-21T12:42:45.934Z,220
2017-06-21T12:43:45.948Z,220
2017-06-21T12:44:45.920Z,220
2017-06-21T12:45:45.898Z,220
2017-06-21T12:46:45.882Z,220
2017-06-21T12:47:45.869Z,220
2017-06-21T12:48:45.255Z,220
2017-06-21T12:49:46.084Z,220
2017-06-21T12:50:45.816Z,220
2017-06-21T12:51:45.806Z,220
2017-06-21T12:52:45.782Z,220
2017-06-21T12:53:45.838Z,220
2017-06-21T12:54:45.771Z,220
2017-06-21T12:55:45.740Z,220
2017-06-21T12:56:45.725Z,225
2017-06-21T12:57:45.717Z,225
2017-06-21T12:58:45.690Z,225
2017-06-21T12:59:45.374Z,230
2017-06-21T13:00:45.657Z,225
2017-06-21T13:01:45.698Z,225
2017-06-21T13:02:45.624Z,225
2017-06-21T13:03:45.686Z,220
2017-06-21T13:04:45.621Z,220
2017-06-21T13:05:45.641Z,220
2017-06-21T13:06:45.583Z,220
2017-06-21T13:07:45.553Z,220
2017-06-21T13:08:45.536Z,220
2017-06-21T13:09:45.530Z,220
2017-06-21T13:10:45.505Z,225
2017-06-21T13:11:45.505Z,220
2017-06-21T13:12:45.472Z,220
2017-06-21T13:13:45.521Z,220
2017-06-21T13:14:45.147Z,220
2017-06-21T13:15:45.446Z,215
2017-06-21T13:16:45.421Z,215
2017-06-21T13:17:45.451Z,215
2017-06-21T13:18:45.082Z,215
2017-06-21T13:19:45.374Z,215
2017-06-21T13:20:45.354Z,220
2017-06-21T13:21:45.336Z,215
2017-06-21T13:22:45.028Z,215
2017-06-21T13:23:45.061Z,210
2017-06-21T13:24:45.290Z,215
2017-06-21T13:25:44.978Z,210
2017-06-21T13:26:44.966Z,210
2017-06-21T13:27:45.245Z,215
2017-06-21T13:28:45.228Z,205
2017-06-21T13:29:45.214Z,205
2017-06-21T13:30:45.209Z,205
2017-06-21T13:31:45.193Z,205
2017-06-21T13:32:45.323Z,200
2017-06-21T13:33:45.149Z,200
2017-06-21T13:34:44.852Z,200
2017-06-21T13:35:45.175Z,205
2017-06-21T13:36:45.111Z,205
2017-06-21T13:37:45.109Z,200
2017-06-21T13:38:45.082Z,200
2017-06-21T13:39:45.060Z,200
2017-06-21T13:40:45.088Z,200
2017-06-21T13:41:44.740Z,195
2017-06-21T13:42:45.062Z,195
2017-06-21T13:43:45.006Z,195
2017-06-21T13:44:45.014Z,190
2017-06-21T13:45:44.974Z,190
2017-06-21T13:46:44.956Z,190
2017-06-21T13:47:44.646Z,190
2017-06-21T13:48:44.980Z,190
2017-06-21T13:49:44.923Z,190
2017-06-21T13:50:44.700Z,195
2017-06-21T13:51:44.586Z,195